createdAt,value
2023-03-28T00:01:02.342Z,3.90
2023-03-28T00:03:29.979Z,3.80
2023-03-28T00:06:06.654Z,3.80
2023-03-28T00:08:33.942Z,3.70
2023-03-28T00:11:08.157Z,3.60
2023-03-28T00:13:35.848Z,3.60
2023-03-28T00:16:05.804Z,3.80
2023-03-28T00:18:37.693Z,3.80
2023-03-28T00:21:23.840Z,3.80
2023-03-28T00:23:55.986Z,3.90
2023-03-28T00:26:25.090Z,4.00
2023-03-28T00:28:52.192Z,4.00
2023-03-28T00:31:19.542Z,4.10
2023-03-28T00:33:47.776Z,3.90
2023-03-28T00:36:18.694Z,3.80
2023-03-28T00:38:46.215Z,3.80
2023-03-28T00:41:16.147Z,3.60
2023-03-28T00:43:45.443Z,3.60
2023-03-28T00:46:23.664Z,3.40
2023-03-28T00:49:13.004Z,3.40
2023-03-28T00:51:45.550Z,3.40
2023-03-28T00:54:17.345Z,3.40
2023-03-28T00:56:48.976Z,3.40
2023-03-28T00:59:19.904Z,3.40
2023-03-28T01:01:47.492Z,3.50
2023-03-28T01:04:20.373Z,3.40
2023-03-28T01:06:51.816Z,3.50
2023-03-28T01:09:21.166Z,3.40
2023-03-28T01:11:48.835Z,3.20
2023-03-28T01:14:18.736Z,3.30
2023-03-28T01:16:47.824Z,3.10
2023-03-28T01:19:42.804Z,3.10
2023-03-28T01:22:16.204Z,3.00
2023-03-28T01:25:19.852Z,3.00
2023-03-28T01:28:18.792Z,3.10
2023-03-28T01:31:13.558Z,3.30
2023-03-28T01:33:52.366Z,3.50
2023-03-28T01:36:50.603Z,3.50
2023-03-28T01:39:29.601Z,3.60
2023-03-28T01:42:05.695Z,3.90
2023-03-28T01:44:45.173Z,3.80
2023-03-28T01:47:37.912Z,3.70
2023-03-28T01:50:32.254Z,3.90
2023-03-28T01:53:05.878Z,3.90
2023-03-28T01:55:49.022Z,3.80
2023-03-28T01:58:44.219Z,3.70
2023-03-28T02:01:23.166Z,3.90
2023-03-28T02:03:55.215Z,4.00
2023-03-28T02:06:24.417Z,3.90
2023-03-28T02:08:55.119Z,4.00
2023-03-28T02:11:23.833Z,4.20
2023-03-28T02:14:00.460Z,4.00
2023-03-28T02:16:29.143Z,4.00
2023-03-28T02:18:58.097Z,3.90
2023-03-28T02:21:31.787Z,3.70
2023-03-28T02:23:58.766Z,3.60
2023-03-28T02:26:26.514Z,3.50
2023-03-28T02:28:57.305Z,3.50
2023-03-28T02:31:25.297Z,3.50
2023-03-28T02:33:53.512Z,3.40
2023-03-28T02:36:33.793Z,3.40
2023-03-28T02:39:15.824Z,3.50
2023-03-28T02:41:54.045Z,3.50
2023-03-28T02:44:36.016Z,3.50
2023-03-28T02:47:24.726Z,3.60
2023-03-28T02:49:54.663Z,3.60
2023-03-28T02:52:52.247Z,3.50
2023-03-28T02:55:38.357Z,3.40
2023-03-28T02:58:15.302Z,3.50
2023-03-28T03:00:43.032Z,3.50
2023-03-28T03:03:14.114Z,3.30
2023-03-28T03:05:41.726Z,3.20
2023-03-28T03:08:09.295Z,3.30
2023-03-28T03:10:36.522Z,3.30
2023-03-28T03:13:03.816Z,3.40
2023-03-28T03:15:31.042Z,3.40
2023-03-28T03:17:59.302Z,3.20
2023-03-28T03:20:33.568Z,3.10
2023-03-28T03:23:01.908Z,3.10
2023-03-28T03:25:31.345Z,3.10
2023-03-28T03:27:58.412Z,3.10
2023-03-28T03:30:25.376Z,3.30
2023-03-28T03:32:52.263Z,3.20
2023-03-28T03:35:20.288Z,3.20
2023-03-28T03:37:48.539Z,3.00
2023-03-28T03:40:15.490Z,3.00
2023-03-28T03:42:42.358Z,3.00
2023-03-28T03:45:11.298Z,3.00
2023-03-28T03:47:38.538Z,3.00
2023-03-28T03:50:06.115Z,3.10
2023-03-28T03:52:33.039Z,3.10
2023-03-28T03:55:00.114Z,3.10
2023-03-28T03:57:27.360Z,3.30
2023-03-28T03:59:54.520Z,3.30
2023-03-28T04:02:21.696Z,3.40
2023-03-28T04:04:48.697Z,3.30
2023-03-28T04:07:16.390Z,3.30
2023-03-28T04:09:43.176Z,3.30
2023-03-28T04:12:11.473Z,3.30
2023-03-28T04:14:38.360Z,3.30
2023-03-28T04:17:05.295Z,3.30
2023-03-28T04:19:32.290Z,3.30
2023-03-28T04:21:59.317Z,3.30
2023-03-28T04:24:26.720Z,3.30
2023-03-28T04:26:56.609Z,3.30
2023-03-28T04:29:25.358Z,3.30
2023-03-28T04:31:56.053Z,3.20
2023-03-28T04:34:30.112Z,3.30
2023-03-28T04:37:01.763Z,3.20
2023-03-28T04:39:30.627Z,3.40
2023-03-28T04:42:02.062Z,3.50
2023-03-28T04:44:29.926Z,3.50
2023-03-28T04:46:58.310Z,3.40
2023-03-28T04:49:25.745Z,3.40
2023-03-28T04:51:52.862Z,3.40
2023-03-28T04:54:22.699Z,3.30
2023-03-28T04:56:50.444Z,3.30
2023-03-28T04:59:18.363Z,3.30
2023-03-28T05:01:49.541Z,3.30
2023-03-28T05:04:18.642Z,3.40
2023-03-28T05:06:46.607Z,3.40
2023-03-28T05:09:14.384Z,3.40
2023-03-28T05:11:41.936Z,3.40
2023-03-28T05:14:09.207Z,3.30
2023-03-28T05:16:36.123Z,3.40
2023-03-28T05:19:03.069Z,3.30
2023-03-28T05:21:30.053Z,3.30
2023-03-28T05:23:57.129Z,3.40
2023-03-28T05:26:24.276Z,3.40
2023-03-28T05:28:51.165Z,3.50
2023-03-28T05:31:18.232Z,3.40
2023-03-28T05:33:45.427Z,3.50
2023-03-28T05:36:13.074Z,3.40
2023-03-28T05:38:39.991Z,3.50
2023-03-28T05:41:07.411Z,3.60
2023-03-28T05:43:34.395Z,3.60
2023-03-28T05:46:01.570Z,3.60
2023-03-28T05:48:28.553Z,3.60
2023-03-28T05:50:55.652Z,3.60
2023-03-28T05:53:26.507Z,3.70
2023-03-28T05:55:53.314Z,3.60
2023-03-28T05:58:20.300Z,3.60
2023-03-28T06:00:47.253Z,3.80
2023-03-28T06:03:17.223Z,3.90
2023-03-28T06:05:47.616Z,4.00
2023-03-28T06:08:14.732Z,4.00
2023-03-28T06:10:42.159Z,3.90
2023-03-28T06:13:11.675Z,3.90
2023-03-28T06:15:38.671Z,3.90
2023-03-28T06:18:05.766Z,3.90
2023-03-28T06:20:32.936Z,3.90
2023-03-28T06:23:00.007Z,4.00
2023-03-28T06:25:26.981Z,4.00
2023-03-28T06:27:54.154Z,4.10
2023-03-28T06:30:20.958Z,4.10
2023-03-28T06:32:47.994Z,4.10
2023-03-28T06:35:15.570Z,4.10
2023-03-28T06:37:42.613Z,4.10
2023-03-28T06:40:10.336Z,4.10
2023-03-28T06:42:37.530Z,4.20
2023-03-28T06:45:04.868Z,4.20
2023-03-28T06:47:31.882Z,4.30
2023-03-28T06:49:58.825Z,4.20
2023-03-28T06:52:25.887Z,4.40
2023-03-28T06:54:52.994Z,4.30
2023-03-28T06:57:19.973Z,4.40
2023-03-28T06:59:47.094Z,4.40
2023-03-28T07:02:14.128Z,4.50
2023-03-28T07:04:41.471Z,4.40
2023-03-28T07:07:09.457Z,4.30
2023-03-28T07:09:37.176Z,4.40
2023-03-28T07:12:04.679Z,4.60
2023-03-28T07:14:31.705Z,4.70
2023-03-28T07:16:58.776Z,4.80
2023-03-28T07:19:26.127Z,4.90
2023-03-28T07:21:53.386Z,4.90
2023-03-28T07:24:20.411Z,4.90
2023-03-28T07:26:47.603Z,4.80
2023-03-28T07:29:14.551Z,5.00
2023-03-28T07:31:43.477Z,5.00
2023-03-28T07:34:10.881Z,5.10
2023-03-28T07:36:39.773Z,5.20
2023-03-28T07:39:06.611Z,5.30
2023-03-28T07:41:33.774Z,5.30
2023-03-28T07:44:00.947Z,5.40
2023-03-28T07:46:28.727Z,5.30
2023-03-28T07:48:56.336Z,5.40
2023-03-28T07:51:23.610Z,5.60
2023-03-28T07:53:50.702Z,5.60
2023-03-28T07:56:17.854Z,5.50
2023-03-28T07:58:44.732Z,5.60
2023-03-28T08:01:13.034Z,5.70
2023-03-28T08:03:42.980Z,5.80
2023-03-28T08:06:24.260Z,5.90
2023-03-28T08:08:57.945Z,5.80
2023-03-28T08:11:25.047Z,6.00
2023-03-28T08:13:52.081Z,6.20
2023-03-28T08:16:19.357Z,6.30
2023-03-28T08:18:50.355Z,6.60
2023-03-28T08:21:21.285Z,6.70
2023-03-28T08:23:48.608Z,6.90
2023-03-28T08:26:15.642Z,7.10
2023-03-28T08:28:42.715Z,7.00
2023-03-28T08:31:15.924Z,7.00
2023-03-28T08:33:48.633Z,7.10
2023-03-28T08:36:15.640Z,7.20
2023-03-28T08:38:43.191Z,7.30
2023-03-28T08:41:09.987Z,7.30
2023-03-28T08:43:45.447Z,7.40
2023-03-28T08:46:14.229Z,7.60
2023-03-28T08:48:44.709Z,7.70
2023-03-28T08:51:20.190Z,7.90
2023-03-28T08:53:55.540Z,7.70
2023-03-28T08:56:25.932Z,7.90
2023-03-28T08:59:05.560Z,7.90
2023-03-28T09:01:33.296Z,8.10
2023-03-28T09:04:26.181Z,8.10
2023-03-28T09:07:06.837Z,8.00
2023-03-28T09:09:52.355Z,8.20
2023-03-28T09:12:46.328Z,8.20
2023-03-28T09:15:25.230Z,8.30
2023-03-28T09:18:13.850Z,8.00
2023-03-28T09:20:57.291Z,8.10
2023-03-28T09:23:30.901Z,8.00
2023-03-28T09:26:13.221Z,7.80
2023-03-28T09:28:50.071Z,7.70
2023-03-28T09:31:19.825Z,7.80
2023-03-28T09:33:49.746Z,7.90
2023-03-28T09:36:25.961Z,7.60
2023-03-28T09:39:01.571Z,7.70
2023-03-28T09:41:39.779Z,7.70
2023-03-28T09:44:13.487Z,7.70
2023-03-28T09:46:43.476Z,7.90
2023-03-28T09:49:19.239Z,8.00
2023-03-28T09:51:46.676Z,8.30
2023-03-28T09:54:14.074Z,8.30
2023-03-28T09:56:43.957Z,8.20
2023-03-28T09:59:31.810Z,8.40
2023-03-28T10:02:00.849Z,8.50
2023-03-28T10:04:29.685Z,8.60
2023-03-28T10:07:19.869Z,8.60
2023-03-28T10:09:53.998Z,8.60
2023-03-28T10:12:23.147Z,8.80
2023-03-28T10:14:50.336Z,8.80
2023-03-28T10:17:31.047Z,8.70
2023-03-28T10:20:03.528Z,8.80
2023-03-28T10:22:35.569Z,8.90
2023-03-28T10:25:08.358Z,9.10
2023-03-28T10:27:37.613Z,9.00
2023-03-28T10:30:29.822Z,9.10
2023-03-28T10:33:17.958Z,9.10
2023-03-28T10:35:50.014Z,9.10
2023-03-28T10:38:19.253Z,9.40
2023-03-28T10:41:06.709Z,9.60
2023-03-28T10:43:41.709Z,9.80
2023-03-28T10:46:17.998Z,9.90
2023-03-28T10:49:07.609Z,10.00
2023-03-28T10:51:38.434Z,10.00
2023-03-28T10:54:11.779Z,10.00
2023-03-28T10:56:52.669Z,10.20
2023-03-28T10:59:19.785Z,10.40
2023-03-28T11:02:07.449Z,10.80
2023-03-28T11:05:01.725Z,10.80
2023-03-28T11:07:31.260Z,10.90
2023-03-28T11:10:16.682Z,10.60
2023-03-28T11:13:17.635Z,10.70
2023-03-28T11:15:56.583Z,10.70
2023-03-28T11:18:30.219Z,10.70
2023-03-28T11:21:21.913Z,10.60
2023-03-28T11:24:10.790Z,10.80
2023-03-28T11:27:12.597Z,11.00
2023-03-28T11:29:49.710Z,11.00
2023-03-28T11:32:37.971Z,11.20
2023-03-28T11:35:28.413Z,11.40
2023-03-28T11:38:05.526Z,11.40
2023-03-28T11:40:56.931Z,11.40
2023-03-28T11:43:37.250Z,11.50
2023-03-28T11:46:12.238Z,11.50
2023-03-28T11:48:42.298Z,11.50
2023-03-28T11:51:27.479Z,11.40
2023-03-28T11:54:06.363Z,11.60
2023-03-28T11:56:36.187Z,11.60
2023-03-28T11:59:16.535Z,12.00
2023-03-28T12:01:49.379Z,12.10
2023-03-28T12:04:33.364Z,12.40
2023-03-28T12:07:18.418Z,12.80
2023-03-28T12:10:06.530Z,12.80
2023-03-28T12:12:57.083Z,12.70
2023-03-28T12:15:48.109Z,12.70
2023-03-28T12:18:38.701Z,12.40
2023-03-28T12:21:21.927Z,12.10
2023-03-28T12:24:14.087Z,11.90
2023-03-28T12:27:39.489Z,12.00
2023-03-28T12:30:35.823Z,12.10
2023-03-28T12:33:30.594Z,12.10
2023-03-28T12:36:05.166Z,12.30
2023-03-28T12:38:42.462Z,12.20
2023-03-28T12:41:22.954Z,12.00
2023-03-28T12:43:52.167Z,11.90
2023-03-28T12:46:27.604Z,11.80
2023-03-28T12:49:06.778Z,11.80
2023-03-28T12:51:40.803Z,11.70
2023-03-28T12:54:22.719Z,11.80
2023-03-28T12:57:07.503Z,11.90
2023-03-28T12:59:40.241Z,11.90
2023-03-28T13:02:35.971Z,11.90
2023-03-28T13:05:22.021Z,11.80
2023-03-28T13:08:04.393Z,12.10
2023-03-28T13:10:43.351Z,12.00
2023-03-28T13:13:21.144Z,12.20
2023-03-28T13:16:42.638Z,12.20
2023-03-28T13:19:11.545Z,12.00
2023-03-28T13:21:46.285Z,12.10
2023-03-28T13:24:25.981Z,12.10
2023-03-28T13:27:00.744Z,12.10
2023-03-28T13:29:48.743Z,12.10
2023-03-28T13:32:26.244Z,12.00
2023-03-28T13:34:57.774Z,12.00
2023-03-28T13:37:44.126Z,12.00
2023-03-28T13:40:51.126Z,12.00
2023-03-28T13:43:40.028Z,12.10
2023-03-28T13:46:13.066Z,12.10
2023-03-28T13:48:56.020Z,12.10
2023-03-28T13:51:26.579Z,12.00
2023-03-28T13:53:53.594Z,11.70
2023-03-28T13:56:31.092Z,11.80
2023-03-28T13:59:01.995Z,11.70
2023-03-28T14:02:00.059Z,11.80
2023-03-28T14:04:31.074Z,11.80
2023-03-28T14:06:58.470Z,11.80
2023-03-28T14:09:28.618Z,11.70
2023-03-28T14:12:02.536Z,11.60
2023-03-28T14:14:48.780Z,11.40
2023-03-28T14:17:24.558Z,11.30
2023-03-28T14:19:58.354Z,11.20
2023-03-28T14:22:30.542Z,11.20
2023-03-28T14:25:07.414Z,11.30
2023-03-28T14:27:49.684Z,11.30
2023-03-28T14:30:26.110Z,11.30
2023-03-28T14:32:57.552Z,11.30
2023-03-28T14:35:30.045Z,11.10
2023-03-28T14:37:59.375Z,11.10
2023-03-28T14:40:29.122Z,11.00
2023-03-28T14:43:04.595Z,11.10
2023-03-28T14:45:42.622Z,11.10
2023-03-28T14:48:18.176Z,11.10
2023-03-28T14:50:47.209Z,11.20
2023-03-28T14:53:27.919Z,11.00
2023-03-28T14:56:02.166Z,11.10
2023-03-28T14:58:30.792Z,11.20
2023-03-28T15:01:01.009Z,11.10
2023-03-28T15:03:59.269Z,11.10
2023-03-28T15:06:29.208Z,10.80
2023-03-28T15:09:08.686Z,10.80
2023-03-28T15:11:41.226Z,10.70
2023-03-28T15:14:36.055Z,10.50
2023-03-28T15:17:03.695Z,10.30
2023-03-28T15:19:40.185Z,10.10
2023-03-28T15:22:17.512Z,10.00
2023-03-28T15:24:45.561Z,10.00
2023-03-28T15:27:31.685Z,9.80
2023-03-28T15:30:04.488Z,9.70
2023-03-28T15:32:32.537Z,9.70
2023-03-28T15:35:22.653Z,9.80
2023-03-28T15:37:50.402Z,9.90
2023-03-28T15:40:28.578Z,9.80
2023-03-28T15:42:56.421Z,9.80
2023-03-28T15:45:28.504Z,9.80
2023-03-28T15:47:56.948Z,9.90
2023-03-28T15:50:33.537Z,9.70
2023-03-28T15:53:04.038Z,9.50
2023-03-28T15:55:31.776Z,9.50
2023-03-28T15:57:59.366Z,9.40
2023-03-28T16:00:42.239Z,9.40
2023-03-28T16:03:32.948Z,9.30
2023-03-28T16:06:30.836Z,9.40
2023-03-28T16:09:20.213Z,9.30
2023-03-28T16:11:50.082Z,9.40
2023-03-28T16:14:20.092Z,9.40
2023-03-28T16:16:47.202Z,9.40
2023-03-28T16:19:20.233Z,9.40
2023-03-28T16:21:48.234Z,9.40
2023-03-28T16:24:15.469Z,9.50
2023-03-28T16:26:42.614Z,9.40
2023-03-28T16:29:11.456Z,9.30
2023-03-28T16:31:38.954Z,9.40
2023-03-28T16:34:09.252Z,9.30
2023-03-28T16:36:37.337Z,9.30
2023-03-28T16:39:08.503Z,9.40
2023-03-28T16:41:35.834Z,9.50
2023-03-28T16:44:03.043Z,9.50
2023-03-28T16:46:30.186Z,9.50
2023-03-28T16:48:57.258Z,9.60
2023-03-28T16:51:24.589Z,9.60
2023-03-28T16:53:52.103Z,9.60
2023-03-28T16:56:19.081Z,9.60
2023-03-28T16:58:46.198Z,9.50
2023-03-28T17:01:19.216Z,9.50
2023-03-28T17:03:47.334Z,9.60
2023-03-28T17:06:16.370Z,9.70
2023-03-28T17:08:44.360Z,9.60
2023-03-28T17:11:12.789Z,9.70
2023-03-28T17:13:41.268Z,9.70
2023-03-28T17:16:09.845Z,9.50
2023-03-28T17:18:37.863Z,9.50
2023-03-28T17:21:13.449Z,9.50
2023-03-28T17:23:42.201Z,9.60
2023-03-28T17:26:11.416Z,9.60
2023-03-28T17:28:40.034Z,9.50
2023-03-28T17:31:14.806Z,9.50
2023-03-28T17:33:43.457Z,9.50
2023-03-28T17:36:15.723Z,9.60
2023-03-28T17:38:43.752Z,9.60
2023-03-28T17:41:11.515Z,9.70
2023-03-28T17:43:41.811Z,9.70
2023-03-28T17:46:10.065Z,9.80
2023-03-28T17:48:41.382Z,9.80
2023-03-28T17:51:10.600Z,9.80
2023-03-28T17:53:39.949Z,9.80
2023-03-28T17:56:08.836Z,9.80
2023-03-28T17:58:37.770Z,9.80
2023-03-28T18:01:12.603Z,9.70
2023-03-28T18:03:42.585Z,9.80
2023-03-28T18:06:10.514Z,9.80
2023-03-28T18:08:37.496Z,9.80
2023-03-28T18:11:08.246Z,9.80
2023-03-28T18:13:36.358Z,9.80
2023-03-28T18:16:04.815Z,9.90
2023-03-28T18:18:32.921Z,9.90
2023-03-28T18:21:00.033Z,10.00
2023-03-28T18:23:27.108Z,9.90
2023-03-28T18:25:54.168Z,9.80
2023-03-28T18:28:23.937Z,9.80
2023-03-28T18:30:51.668Z,9.70
2023-03-28T18:33:19.810Z,9.70
2023-03-28T18:35:47.434Z,9.80
2023-03-28T18:38:15.474Z,9.80
2023-03-28T18:40:42.821Z,9.70
2023-03-28T18:43:11.001Z,9.70
2023-03-28T18:45:38.056Z,9.90
2023-03-28T18:48:06.115Z,9.90
2023-03-28T18:50:33.276Z,9.80
2023-03-28T18:53:00.188Z,9.70
2023-03-28T18:55:27.134Z,9.70
2023-03-28T18:57:53.998Z,9.80
2023-03-28T19:00:21.789Z,9.80
2023-03-28T19:02:50.722Z,9.80
2023-03-28T19:05:17.998Z,9.80
2023-03-28T19:07:45.780Z,9.80
2023-03-28T19:10:13.413Z,9.70
2023-03-28T19:12:41.760Z,9.80
2023-03-28T19:15:11.047Z,9.60
2023-03-28T19:17:40.182Z,9.70
2023-03-28T19:20:12.197Z,9.70
2023-03-28T19:22:42.772Z,9.80
2023-03-28T19:25:10.294Z,9.80
2023-03-28T19:27:38.095Z,9.80
2023-03-28T19:30:07.472Z,9.70
2023-03-28T19:32:34.732Z,9.60
2023-03-28T19:35:01.626Z,9.70
2023-03-28T19:37:28.586Z,9.60
2023-03-28T19:39:59.231Z,9.60
2023-03-28T19:42:26.458Z,9.60
2023-03-28T19:44:53.449Z,9.50
2023-03-28T19:47:20.286Z,9.70
2023-03-28T19:49:50.052Z,9.60
2023-03-28T19:52:17.139Z,9.50
2023-03-28T19:54:43.998Z,9.70
2023-03-28T19:57:11.008Z,9.70
2023-03-28T19:59:37.839Z,9.80
2023-03-28T20:02:04.756Z,9.80
2023-03-28T20:04:32.934Z,9.60
2023-03-28T20:06:59.962Z,9.60
2023-03-28T20:09:27.155Z,9.60
2023-03-28T20:11:54.131Z,9.70
2023-03-28T20:14:21.656Z,9.70
2023-03-28T20:16:48.891Z,9.70
2023-03-28T20:19:18.181Z,9.50
2023-03-28T20:21:45.204Z,9.50
2023-03-28T20:24:12.100Z,9.60
2023-03-28T20:26:44.617Z,9.60
2023-03-28T20:29:13.723Z,9.70
2023-03-28T20:31:40.921Z,9.70
2023-03-28T20:34:08.111Z,9.50
2023-03-28T20:36:35.142Z,9.40
2023-03-28T20:39:02.583Z,9.50
2023-03-28T20:41:30.007Z,9.60
2023-03-28T20:44:03.562Z,9.50
2023-03-28T20:46:32.481Z,9.70
2023-03-28T20:49:00.153Z,9.70
2023-03-28T20:51:29.661Z,9.70
2023-03-28T20:54:01.813Z,9.70
2023-03-28T20:56:30.778Z,9.70
2023-03-28T20:59:28.593Z,9.60
2023-03-28T21:01:55.608Z,9.60
2023-03-28T21:04:24.133Z,9.80
2023-03-28T21:06:51.166Z,9.60
2023-03-28T21:09:18.292Z,9.70
2023-03-28T21:11:45.794Z,9.60
2023-03-28T21:14:14.412Z,9.70
2023-03-28T21:16:41.826Z,9.70
2023-03-28T21:19:09.325Z,9.60
2023-03-28T21:21:36.957Z,9.50
2023-03-28T21:24:04.876Z,9.50
2023-03-28T21:26:32.178Z,9.40
2023-03-28T21:28:59.451Z,9.50
2023-03-28T21:31:29.245Z,9.50
2023-03-28T21:33:57.570Z,9.50
2023-03-28T21:36:26.544Z,9.50
2023-03-28T21:38:54.268Z,9.50
2023-03-28T21:41:22.545Z,9.50
2023-03-28T21:43:50.360Z,9.50
2023-03-28T21:46:18.655Z,9.30
2023-03-28T21:48:48.304Z,9.40
2023-03-28T21:51:17.486Z,9.50
2023-03-28T21:53:44.552Z,9.50
2023-03-28T21:56:14.186Z,9.60
2023-03-28T21:58:41.195Z,9.60
2023-03-28T22:01:08.395Z,9.70
2023-03-28T22:03:38.929Z,9.70
2023-03-28T22:06:09.890Z,9.70
2023-03-28T22:08:37.157Z,9.70
2023-03-28T22:11:14.784Z,9.60
2023-03-28T22:13:42.960Z,9.70
2023-03-28T22:16:10.023Z,9.80
2023-03-28T22:18:37.055Z,9.70
2023-03-28T22:21:04.259Z,9.70
2023-03-28T22:23:31.690Z,9.80
2023-03-28T22:25:58.636Z,9.90
2023-03-28T22:28:25.831Z,9.80
2023-03-28T22:30:56.719Z,9.60
2023-03-28T22:33:25.411Z,9.80
2023-03-28T22:35:57.767Z,9.80
2023-03-28T22:38:24.858Z,9.80
2023-03-28T22:40:52.072Z,9.60
2023-03-28T22:43:19.087Z,9.80
2023-03-28T22:45:45.942Z,9.80
2023-03-28T22:48:15.449Z,9.90
2023-03-28T22:50:47.202Z,9.80
2023-03-28T22:53:15.084Z,9.80
2023-03-28T22:55:43.642Z,9.90
2023-03-28T22:58:12.005Z,9.80
2023-03-28T23:00:39.649Z,9.80
2023-03-28T23:03:08.122Z,9.80
2023-03-28T23:05:35.781Z,9.90
2023-03-28T23:08:03.009Z,9.90
2023-03-28T23:10:30.262Z,9.90
2023-03-28T23:12:57.120Z,9.80
2023-03-28T23:15:24.082Z,9.90
2023-03-28T23:17:51.192Z,9.90
2023-03-28T23:20:19.229Z,9.80
2023-03-28T23:22:47.930Z,9.80
2023-03-28T23:25:18.573Z,9.80
2023-03-28T23:27:46.436Z,9.80
2023-03-28T23:30:15.042Z,9.80
2023-03-28T23:32:42.237Z,9.80
2023-03-28T23:35:10.544Z,9.80
2023-03-28T23:37:38.509Z,10.00
2023-03-28T23:40:10.563Z,10.10
2023-03-28T23:42:37.945Z,10.10
2023-03-28T23:45:05.355Z,10.10
2023-03-28T23:47:32.352Z,10.00
2023-03-28T23:49:59.333Z,10.10
2023-03-28T23:52:26.276Z,9.90
2023-03-28T23:54:53.339Z,10.00
2023-03-28T23:57:20.383Z,10.10
2023-03-28T23:59:47.560Z,9.90
